Time;durP1;ratioP1;P1;durP2;ratioP2;P2;SDS_P1;SDS_P2;PMS_P1;PMS_P2;Temp;Humidity;BMP_temperature;BMP_pressure;BME280_temperature;BME280_humidity;BME280_pressure;Samples;Min_cycle;Max_cycle;Signal;HPM_P1;HPM_P2
2021/08/07 00:00:14;;;;;;;4.75;2.10;;;17.30;99.90;;;;;;5028332;28;20205;-78
2021/08/07 00:02:41;;;;;;;8.02;2.35;;;17.30;99.90;;;;;;5027991;28;20221;-82
2021/08/07 00:05:08;;;;;;;9.93;2.63;;;17.30;99.90;;;;;;5028005;28;20203;-84
2021/08/07 00:07:37;;;;;;;7.95;2.63;;;17.30;99.90;;;;;;5026764;28;20214;-84
2021/08/07 00:10:07;;;;;;;13.77;3.08;;;17.20;99.90;;;;;;5025580;28;20207;-82
2021/08/07 00:12:34;;;;;;;13.68;3.20;;;17.20;99.90;;;;;;5026766;28;20541;-83
2021/08/07 00:15:01;;;;;;;14.57;3.20;;;17.20;99.90;;;;;;5021690;28;20235;-80
2021/08/07 00:17:27;;;;;;;12.30;2.55;;;17.20;99.90;;;;;;5009287;28;20199;-79
2021/08/07 00:19:54;;;;;;;11.60;2.90;;;17.20;99.90;;;;;;5023402;28;20508;-84
2021/08/07 00:22:21;;;;;;;19.48;3.92;;;17.20;99.90;;;;;;5031309;28;20202;-84
2021/08/07 00:24:49;;;;;;;13.80;3.90;;;17.30;99.90;;;;;;5031464;28;20205;-82
2021/08/07 00:27:16;;;;;;;12.73;2.90;;;17.30;99.90;;;;;;5029167;28;20213;-84
2021/08/07 00:29:43;;;;;;;11.63;2.65;;;17.30;99.90;;;;;;5031762;28;20202;-80
2021/08/07 00:32:10;;;;;;;10.57;2.53;;;17.30;99.90;;;;;;5045877;28;20215;-85
2021/08/07 00:34:37;;;;;;;8.90;2.35;;;17.20;99.90;;;;;;5036685;28;20222;-82
2021/08/07 00:37:05;;;;;;;8.13;2.55;;;17.20;99.90;;;;;;5030301;28;20616;-83
2021/08/07 00:39:32;;;;;;;9.10;2.38;;;17.20;99.90;;;;;;5017974;28;20235;-82
2021/08/07 00:42:00;;;;;;;8.48;2.35;;;17.20;99.90;;;;;;5009021;28;20210;-81
2021/08/07 00:44:27;;;;;;;10.07;2.65;;;17.20;99.90;;;;;;5007250;28;20227;-83
2021/08/07 00:46:54;;;;;;;8.48;2.65;;;17.20;99.90;;;;;;5008742;28;20226;-82
2021/08/07 00:49:21;;;;;;;5.97;2.30;;;17.10;99.90;;;;;;5008889;28;20234;-80
2021/08/07 00:51:48;;;;;;;8.20;2.40;;;17.00;99.90;;;;;;5009522;28;20199;-81
2021/08/07 00:54:15;;;;;;;10.70;2.33;;;17.00;99.90;;;;;;5009229;28;20549;-83
2021/08/07 00:56:42;;;;;;;7.15;2.28;;;16.90;99.90;;;;;;5009200;28;20214;-83
2021/08/07 00:59:10;;;;;;;6.57;2.28;;;16.90;99.90;;;;;;5008806;28;20204;-79
2021/08/07 01:01:44;;;;;;;11.13;2.65;;;16.90;99.90;;;;;;5008552;28;20207;-82
2021/08/07 01:04:20;;;;;;;8.38;2.63;;;16.90;99.90;;;;;;5009126;28;20208;-81
2021/08/07 01:06:54;;;;;;;9.55;2.55;;;16.80;99.90;;;;;;5008189;28;20215;-78
2021/08/07 01:09:27;;;;;;;4.38;2.20;;;16.80;99.90;;;;;;5009462;28;20206;-79
2021/08/07 01:12:00;;;;;;;7.55;2.53;;;16.80;99.90;;;;;;5007958;28;20199;-79
2021/08/07 01:14:34;;;;;;;11.02;2.83;;;16.80;99.90;;;;;;5009089;28;20296;-82
2021/08/07 01:17:03;;;;;;;7.10;2.78;;;16.70;99.90;;;;;;4990273;28;20212;-83
2021/08/07 01:19:38;;;;;;;7.28;2.78;;;16.70;99.90;;;;;;4989367;28;20204;-79
2021/08/07 01:22:06;;;;;;;10.88;2.92;;;16.70;99.90;;;;;;4993440;28;20210;-79
2021/08/07 01:24:38;;;;;;;8.52;2.53;;;16.60;99.90;;;;;;5008354;28;20199;-82
2021/08/07 01:27:16;;;;;;;8.27;2.65;;;16.60;99.90;;;;;;5008608;28;20214;-80
2021/08/07 01:29:44;;;;;;;6.77;2.40;;;16.60;99.90;;;;;;5009180;28;20257;-80
2021/08/07 01:32:12;;;;;;;7.03;2.38;;;16.60;99.90;;;;;;5005730;28;20663;-83
2021/08/07 01:34:39;;;;;;;4.88;2.60;;;16.60;99.90;;;;;;5006854;28;20705;-80
2021/08/07 01:37:07;;;;;;;9.85;2.80;;;16.50;99.90;;;;;;5008400;28;20203;-82
2021/08/07 01:39:34;;;;;;;9.55;3.25;;;16.50;99.90;;;;;;5019250;28;20245;-81
2021/08/07 01:42:01;;;;;;;8.43;2.63;;;16.50;99.90;;;;;;5028700;28;20209;-84
2021/08/07 01:44:29;;;;;;;7.63;2.90;;;16.50;99.90;;;;;;5028450;28;20202;-82
2021/08/07 01:46:59;;;;;;;8.15;2.63;;;16.50;99.90;;;;;;5013258;28;20211;-83
2021/08/07 01:49:32;;;;;;;11.88;2.75;;;16.40;99.90;;;;;;5008905;28;20773;-80
2021/08/07 01:52:06;;;;;;;10.65;2.78;;;16.40;99.90;;;;;;5009120;28;20216;-81
2021/08/07 01:54:37;;;;;;;8.18;2.28;;;16.40;99.90;;;;;;5008890;28;20255;-83
2021/08/07 01:57:09;;;;;;;10.55;2.90;;;16.40;99.90;;;;;;5008758;28;20524;-83
2021/08/07 01:59:40;;;;;;;11.93;3.25;;;16.40;99.90;;;;;;5017034;28;20209;-82
2021/08/07 02:02:07;;;;;;;8.05;2.85;;;16.30;99.90;;;;;;5028146;28;20207;-84
2021/08/07 02:04:35;;;;;;;7.70;2.50;;;16.30;99.90;;;;;;5028647;28;20229;-82
2021/08/07 02:07:03;;;;;;;8.55;2.70;;;16.20;99.90;;;;;;5028764;28;20602;-84
2021/08/07 02:09:30;;;;;;;7.60;2.53;;;16.20;99.90;;;;;;5029560;28;20213;-80
2021/08/07 02:11:57;;;;;;;8.60;2.50;;;16.20;99.90;;;;;;5013554;28;20238;-82
2021/08/07 02:14:26;;;;;;;9.10;3.30;;;16.10;99.90;;;;;;5008639;28;20200;-85
2021/08/07 02:16:55;;;;;;;10.40;3.30;;;16.20;99.90;;;;;;5007316;28;20450;-83
2021/08/07 02:19:23;;;;;;;8.43;3.40;;;16.20;99.90;;;;;;5027985;28;20218;-79
2021/08/07 02:21:50;;;;;;;12.75;2.92;;;16.10;99.90;;;;;;5028839;28;20215;-81
2021/08/07 02:24:17;;;;;;;9.20;3.00;;;16.10;99.90;;;;;;5027707;28;20218;-80
2021/08/07 02:26:44;;;;;;;11.05;3.50;;;16.10;99.90;;;;;;5028268;28;20195;-81
2021/08/07 02:29:12;;;;;;;12.98;3.22;;;16.00;99.90;;;;;;5027318;28;20210;-83
2021/08/07 02:31:40;;;;;;;13.00;3.00;;;16.00;99.90;;;;;;5027301;28;20202;-82
2021/08/07 02:34:08;;;;;;;9.15;2.85;;;16.00;99.90;;;;;;5026886;28;20203;-83
2021/08/07 02:36:36;;;;;;;11.27;2.90;;;16.00;99.90;;;;;;5026901;28;20314;-80
2021/08/07 02:39:04;;;;;;;12.43;2.90;;;16.00;99.90;;;;;;5027607;28;20241;-81
2021/08/07 02:41:31;;;;;;;9.63;3.47;;;16.00;99.90;;;;;;5027138;28;20218;-82
2021/08/07 02:43:59;;;;;;;14.90;3.20;;;15.90;99.90;;;;;;5027926;28;20217;-80
2021/08/07 02:46:27;;;;;;;9.63;2.67;;;15.90;99.90;;;;;;5028224;28;20232;-82
2021/08/07 02:48:55;;;;;;;8.50;2.70;;;15.90;99.90;;;;;;5028192;28;20501;-80
2021/08/07 02:51:25;;;;;;;9.48;2.63;;;15.90;99.90;;;;;;5022227;28;20603;-82
2021/08/07 02:53:52;;;;;;;13.13;3.40;;;15.90;99.90;;;;;;5008092;28;20207;-79
2021/08/07 02:56:20;;;;;;;8.80;3.30;;;15.90;99.90;;;;;;5008233;28;20614;-82
2021/08/07 02:58:47;;;;;;;11.97;3.40;;;15.90;99.90;;;;;;5008412;28;20203;-80
2021/08/07 03:01:14;;;;;;;11.93;3.28;;;15.80;99.90;;;;;;5010033;28;20214;-81
2021/08/07 03:03:41;;;;;;;11.25;3.03;;;15.80;99.90;;;;;;5008827;28;20195;-79
2021/08/07 03:06:07;;;;;;;12.70;2.83;;;15.80;99.90;;;;;;5008930;28;20211;-82
2021/08/07 03:08:36;;;;;;;8.73;2.80;;;15.80;99.90;;;;;;5016269;28;20199;-82
2021/08/07 03:11:03;;;;;;;12.83;3.70;;;15.80;99.90;;;;;;5037360;28;20198;-83
2021/08/07 03:13:30;;;;;;;11.32;2.78;;;15.70;99.90;;;;;;5031162;28;20210;-83
2021/08/07 03:15:58;;;;;;;12.37;3.10;;;15.80;99.90;;;;;;5029721;28;20253;-81
2021/08/07 03:18:24;;;;;;;10.05;3.22;;;15.80;99.90;;;;;;5029154;28;20206;-81
2021/08/07 03:20:56;;;;;;;15.67;3.20;;;15.70;99.90;;;;;;5028183;28;20582;-83
2021/08/07 03:23:23;;;;;;;13.37;3.00;;;15.70;99.90;;;;;;5028386;28;20569;-80
2021/08/07 03:25:52;;;;;;;10.40;2.80;;;15.70;99.90;;;;;;5028124;28;20198;-81
2021/08/07 03:28:19;;;;;;;9.40;2.77;;;15.60;99.90;;;;;;5026653;28;20792;-80
2021/08/07 03:30:46;;;;;;;6.73;2.40;;;15.60;99.90;;;;;;5027538;28;20206;-81
2021/08/07 03:33:13;;;;;;;15.13;3.17;;;15.60;99.90;;;;;;5027378;28;20807;-81
2021/08/07 03:35:39;;;;;;;12.57;3.70;;;15.50;99.90;;;;;;5027812;28;20229;-83
2021/08/07 03:38:06;;;;;;;9.23;2.88;;;15.50;99.90;;;;;;5020386;28;20207;-80
2021/08/07 03:40:33;;;;;;;9.07;2.50;;;15.50;99.90;;;;;;4988159;28;20248;-83
2021/08/07 03:43:01;;;;;;;10.73;3.50;;;15.50;99.90;;;;;;4989018;28;20192;-83
2021/08/07 03:45:28;;;;;;;12.15;3.08;;;15.50;99.90;;;;;;4989113;28;20200;-82
2021/08/07 03:47:56;;;;;;;12.23;3.53;;;15.50;99.90;;;;;;4988358;28;20204;-84
2021/08/07 03:50:23;;;;;;;9.27;3.30;;;15.50;99.90;;;;;;4990705;28;20882;-83
2021/08/07 03:52:50;;;;;;;11.53;3.27;;;15.50;99.90;;;;;;4989827;28;20619;-85
2021/08/07 03:55:17;;;;;;;14.60;3.27;;;15.40;99.90;;;;;;4994361;28;20226;-81
2021/08/07 03:57:49;;;;;;;17.23;3.60;;;15.40;99.90;;;;;;5008810;28;20200;-83
2021/08/07 04:00:18;;;;;;;12.00;2.97;;;15.40;99.90;;;;;;5009363;28;20208;-82
2021/08/07 04:02:45;;;;;;;10.40;2.63;;;15.30;99.90;;;;;;5010617;28;20213;-81
2021/08/07 04:05:12;;;;;;;11.52;2.88;;;15.30;99.90;;;;;;5010969;28;20196;-81
2021/08/07 04:07:39;;;;;;;11.63;3.27;;;15.30;99.90;;;;;;5011560;28;20214;-83
2021/08/07 04:10:06;;;;;;;8.10;3.50;;;15.30;99.90;;;;;;5011985;28;20210;-85
2021/08/07 04:12:33;;;;;;;12.13;2.67;;;15.30;99.90;;;;;;5012177;28;20822;-86
2021/08/07 04:15:00;;;;;;;13.90;3.03;;;15.30;99.90;;;;;;5011707;28;20203;-85
2021/08/07 04:17:29;;;;;;;8.87;3.20;;;15.20;99.90;;;;;;5011488;28;20480;-82
2021/08/07 04:19:56;;;;;;;13.60;3.87;;;15.20;99.90;;;;;;5011566;28;20226;-84
2021/08/07 04:22:23;;;;;;;11.63;3.30;;;15.20;99.90;;;;;;5013045;28;20195;-81
2021/08/07 04:24:49;;;;;;;9.03;3.13;;;15.20;99.90;;;;;;5000880;28;20212;-85
2021/08/07 04:27:17;;;;;;;9.77;2.70;;;15.20;99.90;;;;;;4999124;28;20267;-84
2021/08/07 04:29:44;;;;;;;11.53;3.80;;;15.20;99.90;;;;;;5004575;28;20204;-83
2021/08/07 04:32:11;;;;;;;14.33;4.37;;;15.20;99.90;;;;;;5010460;28;20241;-83
2021/08/07 04:34:39;;;;;;;13.13;3.35;;;15.10;99.90;;;;;;5014699;28;20230;-81
2021/08/07 04:37:06;;;;;;;7.80;3.00;;;15.10;99.90;;;;;;5011968;28;20235;-80
2021/08/07 04:39:32;;;;;;;9.57;3.40;;;15.20;99.90;;;;;;5020827;28;20338;-82
2021/08/07 04:41:59;;;;;;;10.30;3.13;;;15.20;99.90;;;;;;5030566;28;20214;-82
2021/08/07 04:44:26;;;;;;;9.63;3.27;;;15.20;99.90;;;;;;5030605;28;20586;-81
2021/08/07 04:46:53;;;;;;;9.63;3.60;;;15.20;99.90;;;;;;5030865;28;20510;-80
2021/08/07 04:49:20;;;;;;;11.77;3.45;;;15.30;99.90;;;;;;5030914;28;20206;-78
2021/08/07 04:51:48;;;;;;;9.03;3.63;;;15.30;99.90;;;;;;5031139;28;20210;-82
2021/08/07 04:54:15;;;;;;;9.10;3.37;;;15.30;99.90;;;;;;5031159;28;20195;-83
2021/08/07 04:56:42;;;;;;;12.82;3.70;;;15.30;99.90;;;;;;5030802;28;20236;-82
2021/08/07 04:59:10;;;;;;;9.83;3.23;;;15.30;99.90;;;;;;5030270;28;20206;-82
2021/08/07 05:01:36;;;;;;;10.13;3.70;;;15.30;99.90;;;;;;5030296;28;20581;-82
2021/08/07 05:04:03;;;;;;;9.87;3.40;;;15.30;99.90;;;;;;5030358;28;20211;-86
2021/08/07 05:06:30;;;;;;;11.83;3.40;;;15.30;99.90;;;;;;5028426;28;20834;-81
2021/08/07 05:08:58;;;;;;;10.33;3.73;;;15.30;99.90;;;;;;5029024;28;20211;-80
2021/08/07 05:11:25;;;;;;;11.77;3.67;;;15.40;99.90;;;;;;5026768;28;20206;-82
2021/08/07 05:13:52;;;;;;;13.70;3.95;;;15.40;99.90;;;;;;5008937;28;20199;-82
2021/08/07 05:16:18;;;;;;;10.13;3.00;;;15.40;99.90;;;;;;5009797;28;20219;-80
2021/08/07 05:18:45;;;;;;;7.30;3.92;;;15.50;99.90;;;;;;5017527;28;20210;-81
2021/08/07 05:21:12;;;;;;;4.60;2.65;;;15.40;99.90;;;;;;5029716;28;20520;-83
2021/08/07 05:23:39;;;;;;;10.73;3.50;;;15.50;99.90;;;;;;5029945;28;20677;-82
2021/08/07 05:26:07;;;;;;;13.83;3.37;;;15.50;99.90;;;;;;5028996;28;20199;-80
2021/08/07 05:28:35;;;;;;;9.43;3.53;;;15.50;99.90;;;;;;5026803;28;20214;-81
2021/08/07 05:31:01;;;;;;;10.03;3.80;;;15.50;99.90;;;;;;5028887;28;20865;-82
2021/08/07 05:33:28;;;;;;;11.57;3.70;;;15.60;99.90;;;;;;5028776;28;20222;-81
2021/08/07 05:35:55;;;;;;;12.48;3.33;;;15.70;99.90;;;;;;5029137;28;20606;-83
2021/08/07 05:38:22;;;;;;;6.27;2.70;;;15.70;99.90;;;;;;5021050;28;20199;-82
2021/08/07 05:40:49;;;;;;;10.50;3.03;;;15.80;99.90;;;;;;5008996;28;20810;-81
2021/08/07 05:43:17;;;;;;;6.13;2.58;;;15.90;99.90;;;;;;5008977;28;20192;-82
2021/08/07 05:45:43;;;;;;;11.68;3.40;;;15.90;99.90;;;;;;5007402;28;20203;-82
2021/08/07 05:48:12;;;;;;;11.10;2.90;;;16.00;99.90;;;;;;5022710;28;20219;-81
2021/08/07 05:50:38;;;;;;;9.15;2.90;;;16.10;99.90;;;;;;5027710;28;20521;-82
2021/08/07 05:53:05;;;;;;;10.70;3.13;;;16.10;99.90;;;;;;5028650;28;20210;-81
2021/08/07 05:55:32;;;;;;;9.32;2.60;;;16.10;99.90;;;;;;5028267;28;20214;-80
2021/08/07 05:58:02;;;;;;;7.20;2.95;;;16.20;99.90;;;;;;5027957;28;20205;-81
2021/08/07 06:00:30;;;;;;;6.38;2.00;;;16.20;99.90;;;;;;5028577;28;20202;-83
2021/08/07 06:02:57;;;;;;;10.77;2.78;;;16.40;99.90;;;;;;5028533;28;20199;-82
2021/08/07 06:05:24;;;;;;;8.73;3.15;;;16.60;99.90;;;;;;5028214;28;20203;-83
2021/08/07 06:07:51;;;;;;;10.43;3.25;;;16.90;99.90;;;;;;5027922;28;20388;-81
2021/08/07 06:10:18;;;;;;;9.82;2.58;;;17.20;99.90;;;;;;5026393;28;20305;-85
2021/08/07 06:12:45;;;;;;;21.25;3.30;;;17.50;99.90;;;;;;5025190;28;20602;-81
2021/08/07 06:15:12;;;;;;;7.30;2.55;;;17.70;99.90;;;;;;5026460;28;20199;-84
2021/08/07 06:17:40;;;;;;;9.77;2.80;;;18.00;99.90;;;;;;5025021;28;20230;-82
2021/08/07 06:20:09;;;;;;;11.02;2.58;;;18.10;99.90;;;;;;5025002;28;20214;-82
2021/08/07 06:22:36;;;;;;;9.77;2.30;;;18.10;99.90;;;;;;5007594;28;20203;-83
2021/08/07 06:25:04;;;;;;;9.60;2.95;;;18.20;99.90;;;;;;5025441;28;20222;-82
2021/08/07 06:27:32;;;;;;;8.90;2.75;;;18.10;99.90;;;;;;5025921;28;20214;-83
2021/08/07 06:29:59;;;;;;;9.38;2.70;;;18.20;99.90;;;;;;5018455;28;20203;-89
2021/08/07 06:32:26;;;;;;;9.52;2.30;;;18.40;99.90;;;;;;5026667;28;20219;-82
2021/08/07 06:34:54;;;;;;;8.75;2.90;;;18.70;99.90;;;;;;5024999;28;20217;-81
2021/08/07 06:37:21;;;;;;;5.80;2.03;;;18.90;99.90;;;;;;5027134;28;20222;-84
2021/08/07 06:39:47;;;;;;;12.02;3.22;;;19.10;99.90;;;;;;5008142;28;20239;-83
2021/08/07 06:42:15;;;;;;;8.80;2.60;;;19.30;99.90;;;;;;4987295;28;20258;-88
2021/08/07 06:44:42;;;;;;;7.07;2.50;;;19.50;99.90;;;;;;4986333;28;20207;-86
2021/08/07 06:47:09;;;;;;;6.57;2.42;;;19.90;99.90;;;;;;4989918;28;20310;-90
2021/08/07 06:49:35;;;;;;;11.23;2.78;;;20.10;99.90;;;;;;4995594;28;20230;-81
2021/08/07 06:52:04;;;;;;;10.95;2.50;;;20.30;99.90;;;;;;5009235;28;20510;-86
2021/08/07 06:54:31;;;;;;;5.53;2.40;;;20.60;99.90;;;;;;5007328;28;20339;-86
2021/08/07 06:56:58;;;;;;;7.18;2.25;;;21.00;99.90;;;;;;5007232;28;20765;-87
2021/08/07 06:59:25;;;;;;;7.38;2.47;;;21.20;99.90;;;;;;5006844;28;20199;-80
2021/08/07 07:01:51;;;;;;;8.00;2.40;;;21.20;99.90;;;;;;4995258;28;20204;-88
2021/08/07 07:04:18;;;;;;;8.15;2.50;;;21.00;99.90;;;;;;4988439;28;20211;-85
2021/08/07 07:06:45;;;;;;;5.90;2.38;;;20.90;99.90;;;;;;4989216;28;20196;-80
2021/08/07 07:09:13;;;;;;;8.07;2.53;;;20.70;99.90;;;;;;4989433;28;20207;-82
2021/08/07 07:11:40;;;;;;;4.95;2.17;;;20.60;99.90;;;;;;5003085;28;20331;-86
2021/08/07 07:14:07;;;;;;;7.32;2.90;;;20.40;99.90;;;;;;5007496;28;20195;-84
2021/08/07 07:16:34;;;;;;;6.53;2.53;;;20.10;99.90;;;;;;5007450;28;20219;-82
2021/08/07 07:19:01;;;;;;;9.38;2.47;;;19.90;99.90;;;;;;5007042;28;20206;-81
2021/08/07 07:24:51;;;;;;;5.90;2.80;;;20.10;99.90;;;;;;5000434;28;20545;-83
2021/08/07 07:27:18;;;;;;;7.13;2.65;;;20.50;99.90;;;;;;4999641;28;20200;-85
2021/08/07 07:29:45;;;;;;;9.70;2.60;;;20.80;99.90;;;;;;4991387;28;20923;-84
2021/08/07 07:32:12;;;;;;;6.80;2.65;;;20.90;99.90;;;;;;4992165;28;20227;-87
2021/08/07 07:34:39;;;;;;;6.30;2.30;;;21.20;99.90;;;;;;4990274;28;20196;-79
2021/08/07 07:37:06;;;;;;;5.28;2.38;;;21.40;99.90;;;;;;5005921;28;20227;-81
2021/08/07 07:39:33;;;;;;;8.13;3.22;;;21.50;99.90;;;;;;4985257;28;20276;-80
2021/08/07 07:42:01;;;;;;;8.35;2.50;;;21.40;99.90;;;;;;5010836;28;20199;-81
2021/08/07 07:44:28;;;;;;;9.70;2.60;;;21.10;99.90;;;;;;5011689;28;20398;-80
2021/08/07 07:46:55;;;;;;;8.73;2.92;;;21.10;99.90;;;;;;5009447;28;20203;-80
2021/08/07 07:49:22;;;;;;;5.50;3.00;;;20.90;99.90;;;;;;5010449;28;20566;-79
2021/08/07 07:51:49;;;;;;;8.07;3.13;;;20.80;99.90;;;;;;5010383;28;20834;-83
2021/08/07 07:54:15;;;;;;;7.75;2.88;;;20.70;99.90;;;;;;5009691;28;20200;-82
2021/08/07 07:56:42;;;;;;;10.00;2.78;;;20.50;99.90;;;;;;5009991;28;20948;-82
2021/08/07 07:59:11;;;;;;;11.07;3.17;;;20.40;99.90;;;;;;5011310;28;20204;-81
2021/08/07 08:01:38;;;;;;;10.25;2.75;;;20.20;99.90;;;;;;5011198;28;20230;-85
2021/08/07 08:04:05;;;;;;;6.63;2.55;;;20.00;99.90;;;;;;5010359;28;20211;-82
2021/08/07 08:06:32;;;;;;;7.90;2.38;;;20.00;99.90;;;;;;5009544;28;20613;-78
2021/08/07 08:08:59;;;;;;;5.93;2.53;;;20.00;99.90;;;;;;5010754;28;20481;-81
2021/08/07 08:11:25;;;;;;;6.78;2.47;;;20.00;99.90;;;;;;5010530;28;20203;-82
2021/08/07 08:13:52;;;;;;;7.60;2.22;;;20.20;99.90;;;;;;5003709;28;20214;-81
2021/08/07 08:16:20;;;;;;;6.70;2.15;;;20.20;99.90;;;;;;4991789;28;20200;-81
2021/08/07 08:18:47;;;;;;;5.18;2.13;;;20.30;99.90;;;;;;4991673;28;20235;-81
2021/08/07 08:21:14;;;;;;;10.25;2.10;;;20.40;99.90;;;;;;4991490;28;20220;-82
2021/08/07 08:23:41;;;;;;;5.18;2.50;;;20.40;99.90;;;;;;5000114;28;20207;-81
2021/08/07 08:26:07;;;;;;;5.57;2.20;;;20.60;99.90;;;;;;5011247;28;20200;-82
2021/08/07 08:28:34;;;;;;;5.63;2.08;;;21.30;99.90;;;;;;5007105;28;20560;-80
2021/08/07 08:31:01;;;;;;;7.05;1.90;;;21.60;99.90;;;;;;5013359;28;20203;-81
2021/08/07 08:33:29;;;;;;;5.15;1.92;;;22.10;99.90;;;;;;5019913;28;20227;-80
2021/08/07 08:35:56;;;;;;;6.15;1.80;;;22.30;99.90;;;;;;4995250;28;20219;-78
2021/08/07 08:38:23;;;;;;;6.00;2.03;;;22.20;99.90;;;;;;4989093;28;20220;-85
2021/08/07 08:40:50;;;;;;;5.53;1.60;;;22.00;99.90;;;;;;5004422;28;20239;-88
2021/08/07 08:43:17;;;;;;;3.75;1.50;;;22.00;99.90;;;;;;5012491;28;20207;-84
2021/08/07 08:45:45;;;;;;;3.92;1.55;;;22.30;99.90;;;;;;5011739;28;20199;-90
2021/08/07 08:48:13;;;;;;;5.47;1.73;;;22.50;99.90;;;;;;5021553;28;20468;-87
2021/08/07 08:50:41;;;;;;;3.35;1.33;;;22.50;99.90;;;;;;5031578;28;20199;-83
2021/08/07 08:53:08;;;;;;;6.53;1.60;;;22.30;99.90;;;;;;5030182;28;20261;-85
2021/08/07 08:55:37;;;;;;;3.83;1.50;;;22.20;99.90;;;;;;5030213;28;20554;-88
2021/08/07 08:58:03;;;;;;;5.82;1.70;;;22.00;99.90;;;;;;5029435;28;20230;-79
2021/08/07 09:00:30;;;;;;;6.55;1.88;;;21.50;99.90;;;;;;5030627;28;20203;-84
2021/08/07 09:02:57;;;;;;;6.15;1.80;;;21.40;99.90;;;;;;5029986;28;20203;-81
2021/08/07 09:05:24;;;;;;;9.48;1.92;;;21.20;99.90;;;;;;5019045;28;20207;-82
2021/08/07 09:07:52;;;;;;;5.68;1.90;;;21.10;99.90;;;;;;5007229;28;20195;-81
2021/08/07 09:10:22;;;;;;;5.13;1.65;;;21.00;99.90;;;;;;5009993;28;20203;-78
2021/08/07 09:12:52;;;;;;;4.85;1.60;;;21.00;99.90;;;;;;5009399;28;20297;-81
2021/08/07 09:15:28;;;;;;;8.45;1.75;;;21.20;99.90;;;;;;5009941;28;20195;-83
2021/08/07 09:18:20;;;;;;;4.65;1.90;;;21.40;99.90;;;;;;5021425;28;20541;-78
2021/08/07 09:20:48;;;;;;;5.93;2.03;;;21.50;99.90;;;;;;5029491;28;20203;-81
2021/08/07 09:23:28;;;;;;;5.65;1.80;;;21.50;99.90;;;;;;5030221;28;20217;-81
2021/08/07 09:25:55;;;;;;;4.55;1.73;;;21.60;99.90;;;;;;5028243;28;20202;-83
2021/08/07 09:28:21;;;;;;;3.30;1.42;;;21.60;99.90;;;;;;5008915;28;20214;-79
2021/08/07 09:30:48;;;;;;;4.43;1.75;;;21.90;99.90;;;;;;5009577;28;20897;-84
2021/08/07 09:33:24;;;;;;;3.88;1.58;;;21.70;99.90;;;;;;5009543;28;20241;-82
2021/08/07 09:35:51;;;;;;;4.28;1.70;;;21.90;99.90;;;;;;5009094;28;20765;-82
2021/08/07 09:38:22;;;;;;;3.20;1.70;;;21.90;99.90;;;;;;5010872;28;20219;-85
2021/08/07 09:40:52;;;;;;;4.70;1.52;;;21.90;99.90;;;;;;5000212;28;20246;-84
2021/08/07 09:43:22;;;;;;;5.10;1.88;;;21.90;99.90;;;;;;4991432;28;20535;-79
2021/08/07 09:46:03;;;;;;;6.35;1.52;;;22.00;99.90;;;;;;5001387;28;20221;-83
2021/08/07 09:48:35;;;;;;;6.10;1.70;;;21.70;99.90;;;;;;5011207;28;20200;-84
2021/08/07 09:51:18;;;;;;;3.53;1.63;;;21.60;99.90;;;;;;5010212;28;20203;-82
2021/08/07 09:54:01;;;;;;;4.30;1.48;;;21.70;99.90;;;;;;5008108;28;20211;-79
2021/08/07 09:56:28;;;;;;;4.90;1.55;;;22.10;99.90;;;;;;5009005;28;20199;-81
2021/08/07 09:59:09;;;;;;;4.38;1.73;;;22.10;99.90;;;;;;5008455;28;20231;-78
2021/08/07 10:01:36;;;;;;;3.00;1.30;;;21.90;99.90;;;;;;5008423;28;20211;-79
2021/08/07 10:04:05;;;;;;;4.05;1.40;;;21.90;99.90;;;;;;5008457;28;20198;-82
2021/08/07 10:06:32;;;;;;;2.45;1.35;;;22.00;99.90;;;;;;5008856;28;20211;-81
2021/08/07 10:09:00;;;;;;;5.32;1.50;;;22.20;99.90;;;;;;5007482;28;20215;-83
2021/08/07 10:11:27;;;;;;;2.20;1.13;;;22.70;99.90;;;;;;5009599;28;20203;-85
2021/08/07 10:13:55;;;;;;;2.95;1.48;;;23.20;99.90;;;;;;5008652;28;20207;-85
2021/08/07 10:16:22;;;;;;;4.18;1.60;;;23.50;99.90;;;;;;5008213;28;20242;-83
2021/08/07 10:18:50;;;;;;;3.15;1.20;;;23.60;99.90;;;;;;4992522;28;20219;-82
2021/08/07 10:21:18;;;;;;;1.67;1.20;;;23.60;99.90;;;;;;4989267;28;20212;-86
2021/08/07 10:23:46;;;;;;;2.65;1.52;;;23.80;99.90;;;;;;4988622;28;20211;-82
2021/08/07 10:26:19;;;;;;;3.03;1.50;;;24.10;99.90;;;;;;5000838;28;20217;-82
2021/08/07 10:28:47;;;;;;;4.53;1.58;;;23.90;99.90;;;;;;5008911;28;20203;-83
2021/08/07 10:31:16;;;;;;;3.17;1.10;;;23.80;99.90;;;;;;5007352;28;20214;-84
2021/08/07 10:33:46;;;;;;;1.67;1.20;;;23.70;99.90;;;;;;5009086;28;20223;-82
2021/08/07 10:36:13;;;;;;;4.93;1.40;;;23.70;99.90;;;;;;5007383;28;20231;-81
2021/08/07 10:38:40;;;;;;;3.63;1.35;;;23.70;99.90;;;;;;5007260;28;20231;-81
2021/08/07 10:41:08;;;;;;;3.15;1.27;;;23.60;99.90;;;;;;5020273;28;20238;-81
2021/08/07 10:43:38;;;;;;;3.28;1.10;;;23.40;99.90;;;;;;5026885;28;20536;-81
2021/08/07 10:46:06;;;;;;;3.53;1.45;;;23.60;99.90;;;;;;5027229;28;20203;-85
2021/08/07 10:48:38;;;;;;;2.72;1.08;;;23.70;99.90;;;;;;5027673;28;20203;-82
2021/08/07 10:51:31;;;;;;;3.63;1.38;;;23.70;99.90;;;;;;5026601;28;20233;-87
2021/08/07 10:54:00;;;;;;;3.92;1.75;;;23.80;99.90;;;;;;5028360;28;20759;-82
2021/08/07 10:56:44;;;;;;;4.57;1.65;;;23.80;99.90;;;;;;5027693;28;20211;-79
2021/08/07 10:59:22;;;;;;;5.22;1.52;;;23.80;99.90;;;;;;5027452;28;20392;-85
2021/08/07 11:01:50;;;;;;;5.60;1.77;;;23.80;99.90;;;;;;5028112;28;20213;-83
2021/08/07 11:04:23;;;;;;;3.55;1.50;;;23.80;99.90;;;;;;5025273;28;20487;-79
2021/08/07 11:06:56;;;;;;;2.75;1.30;;;23.70;99.90;;;;;;5028154;28;20194;-80
2021/08/07 11:09:28;;;;;;;5.15;1.45;;;23.90;99.90;;;;;;5027715;28;20613;-81
2021/08/07 11:12:19;;;;;;;5.78;2.00;;;24.10;99.90;;;;;;5025711;28;20214;-80
2021/08/07 11:14:50;;;;;;;5.65;1.70;;;24.30;99.90;;;;;;5026390;28;20222;-80
2021/08/07 11:17:41;;;;;;;5.53;1.55;;;24.10;99.90;;;;;;5024794;28;20594;-78
2021/08/07 11:20:24;;;;;;;3.88;1.50;;;24.30;99.90;;;;;;5024736;28;20206;-78
2021/08/07 11:23:13;;;;;;;3.08;1.52;;;24.50;99.90;;;;;;5008617;28;20470;-79
2021/08/07 11:26:02;;;;;;;3.65;1.30;;;24.50;99.90;;;;;;5024624;28;20497;-80
2021/08/07 11:28:30;;;;;;;4.20;1.80;;;24.20;99.90;;;;;;5024906;28;20202;-80
2021/08/07 11:31:15;;;;;;;2.63;1.20;;;24.20;99.90;;;;;;5024696;28;20218;-80
2021/08/07 11:33:42;;;;;;;4.10;1.58;;;24.50;99.90;;;;;;5024067;28;20349;-77
2021/08/07 11:36:14;;;;;;;3.22;1.52;;;24.40;99.90;;;;;;5023289;28;20214;-79
2021/08/07 11:39:03;;;;;;;3.78;1.40;;;24.40;99.90;;;;;;5023255;28;20230;-81
2021/08/07 11:41:32;;;;;;;5.50;1.63;;;24.30;99.90;;;;;;5021946;28;20959;-78
2021/08/07 11:44:00;;;;;;;4.13;1.70;;;24.30;99.90;;;;;;5023646;28;20203;-79
2021/08/07 11:46:35;;;;;;;4.07;1.50;;;24.70;99.90;;;;;;5024630;28;20206;-79
2021/08/07 11:49:02;;;;;;;3.58;1.52;;;24.70;99.90;;;;;;5024841;28;20194;-80
2021/08/07 11:51:29;;;;;;;2.75;0.93;;;24.40;99.90;;;;;;5023214;28;20222;-79
2021/08/07 11:53:57;;;;;;;3.30;1.40;;;24.80;99.90;;;;;;5025738;28;20614;-79
2021/08/07 11:56:25;;;;;;;3.78;1.70;;;25.20;99.90;;;;;;5026282;28;20210;-82
2021/08/07 11:58:53;;;;;;;5.53;1.40;;;25.50;99.90;;;;;;5022458;28;20564;-81
2021/08/07 12:01:21;;;;;;;1.85;1.27;;;25.70;99.90;;;;;;5005714;28;20613;-80
2021/08/07 12:03:51;;;;;;;3.80;1.63;;;25.80;99.90;;;;;;5006551;28;20230;-83
2021/08/07 12:06:19;;;;;;;3.88;1.67;;;26.10;99.90;;;;;;5006539;28;20192;-83
2021/08/07 12:08:47;;;;;;;2.75;1.38;;;26.10;99.90;;;;;;5020280;28;20348;-80
2021/08/07 12:11:16;;;;;;;5.07;1.90;;;25.90;99.90;;;;;;5029191;28;20202;-82
2021/08/07 12:13:49;;;;;;;5.32;1.75;;;25.60;99.90;;;;;;5029544;28;20187;-82
2021/08/07 12:16:18;;;;;;;5.32;1.95;;;25.10;99.90;;;;;;5013183;28;20214;-79
2021/08/07 12:18:47;;;;;;;7.43;2.15;;;24.70;99.90;;;;;;5008282;28;20229;-79
2021/08/07 12:21:26;;;;;;;8.30;2.80;;;24.40;99.90;;;;;;5029563;28;20504;-83
2021/08/07 12:23:54;;;;;;;4.43;1.73;;;24.20;99.90;;;;;;5031292;28;20224;-84
2021/08/07 12:26:23;;;;;;;5.28;1.88;;;24.30;99.90;;;;;;5042706;28;20213;-79
2021/08/07 12:28:56;;;;;;;4.43;1.65;;;24.30;99.90;;;;;;5031702;28;20219;-78
2021/08/07 12:31:23;;;;;;;3.45;1.70;;;24.10;99.90;;;;;;5014161;28;20203;-80
2021/08/07 12:33:50;;;;;;;5.97;1.58;;;24.30;99.90;;;;;;5011950;28;20236;-78
2021/08/07 12:36:20;;;;;;;5.18;1.60;;;24.40;99.90;;;;;;5015019;28;20233;-81
2021/08/07 12:38:48;;;;;;;4.53;1.48;;;24.50;99.90;;;;;;5028644;28;20857;-78
2021/08/07 12:41:18;;;;;;;6.43;1.70;;;24.50;99.90;;;;;;5001123;28;20239;-85
2021/08/07 12:43:45;;;;;;;4.03;1.50;;;24.50;99.90;;;;;;4989936;28;20204;-82
2021/08/07 12:46:14;;;;;;;4.93;1.60;;;24.20;99.90;;;;;;4987855;28;20216;-81
2021/08/07 12:48:52;;;;;;;5.85;1.60;;;24.30;99.90;;;;;;4987786;28;20208;-82
2021/08/07 12:51:29;;;;;;;4.50;1.33;;;24.10;99.90;;;;;;4988098;28;20222;-82
2021/08/07 12:53:57;;;;;;;4.00;1.85;;;24.20;99.90;;;;;;4989550;28;20195;-82